createdAt,value
2019-05-29T00:02:02.746Z,43.87
2019-05-29T00:04:31.144Z,42.77
2019-05-29T00:06:59.579Z,41.77
2019-05-29T00:09:27.986Z,43.67
2019-05-29T00:11:56.413Z,41.00
2019-05-29T00:14:27.408Z,45.10
2019-05-29T00:16:54.981Z,40.90
2019-05-29T00:19:23.375Z,40.30
2019-05-29T00:21:51.807Z,42.20
2019-05-29T00:24:21.107Z,41.37
2019-05-29T00:26:49.525Z,43.30
2019-05-29T00:29:18.033Z,42.17
2019-05-29T00:31:46.431Z,46.17
2019-05-29T00:34:15.222Z,42.30
2019-05-29T00:36:43.944Z,42.07
2019-05-29T00:39:12.711Z,43.47
2019-05-29T00:41:41.372Z,41.70
2019-05-29T00:44:09.778Z,42.20
2019-05-29T00:46:38.208Z,42.80
2019-05-29T00:49:07.678Z,43.30
2019-05-29T00:51:36.221Z,42.57
2019-05-29T00:54:04.792Z,41.87
2019-05-29T00:56:33.221Z,41.67
2019-05-29T00:59:01.630Z,41.87
2019-05-29T01:01:30.068Z,41.90
2019-05-29T01:03:58.466Z,42.80
2019-05-29T01:06:26.894Z,44.60
2019-05-29T01:08:55.300Z,45.77
2019-05-29T01:11:23.739Z,42.50
2019-05-29T01:13:52.135Z,44.93
2019-05-29T01:16:21.649Z,43.47
2019-05-29T01:18:50.153Z,44.50
2019-05-29T01:21:18.630Z,41.27
2019-05-29T01:23:47.061Z,42.53
2019-05-29T01:26:16.492Z,43.17
2019-05-29T01:28:45.075Z,42.87
2019-05-29T01:31:13.659Z,42.40
2019-05-29T01:33:42.078Z,42.10
2019-05-29T01:36:10.485Z,41.60
2019-05-29T01:38:38.918Z,41.70
2019-05-29T01:41:07.321Z,44.33
2019-05-29T01:43:35.762Z,42.03
2019-05-29T01:46:04.238Z,45.83
2019-05-29T01:48:32.674Z,43.23
2019-05-29T01:51:01.070Z,47.90
2019-05-29T01:53:29.499Z,41.57
2019-05-29T01:55:57.902Z,41.73
2019-05-29T01:58:26.403Z,43.77
2019-05-29T02:00:54.811Z,41.43
2019-05-29T02:03:23.981Z,41.40
2019-05-29T02:05:52.525Z,41.87
2019-05-29T02:08:22.045Z,41.87
2019-05-29T02:10:50.639Z,42.43
2019-05-29T02:13:19.496Z,42.20
2019-05-29T02:15:47.951Z,45.43
2019-05-29T02:18:16.770Z,42.40
2019-05-29T02:20:45.465Z,42.17
2019-05-29T02:23:13.899Z,41.20
2019-05-29T02:25:42.308Z,44.10
2019-05-29T02:28:10.732Z,43.10
2019-05-29T02:30:39.196Z,42.30
2019-05-29T02:33:07.698Z,41.20
2019-05-29T02:35:36.103Z,42.60
2019-05-29T02:38:04.700Z,44.03
2019-05-29T02:40:33.099Z,42.10
2019-05-29T02:43:01.538Z,43.17
2019-05-29T02:45:50.707Z,43.93
2019-05-29T02:48:00.138Z,43.97
2019-05-29T02:50:29.386Z,41.20
2019-05-29T02:52:58.754Z,41.00
2019-05-29T02:55:28.807Z,41.70
2019-05-29T02:57:57.403Z,43.53
2019-05-29T03:00:46.646Z,41.60
2019-05-29T03:03:15.073Z,43.90
2019-05-29T03:05:43.486Z,43.63
2019-05-29T03:08:11.980Z,41.13
2019-05-29T03:10:40.385Z,42.00
2019-05-29T03:13:08.858Z,43.93
2019-05-29T03:15:37.296Z,42.57
2019-05-29T03:18:05.707Z,42.20
2019-05-29T03:20:34.570Z,41.30
2019-05-29T03:23:03.216Z,44.10
2019-05-29T03:25:32.623Z,46.00
2019-05-29T03:28:01.035Z,46.87
2019-05-29T03:30:31.817Z,41.10
2019-05-29T03:32:59.601Z,40.70
2019-05-29T03:35:31.437Z,43.57
2019-05-29T03:37:59.111Z,40.80
2019-05-29T03:40:29.016Z,41.03
2019-05-29T03:42:57.805Z,41.80
2019-05-29T03:45:26.736Z,41.20
2019-05-29T03:47:55.722Z,41.03
2019-05-29T03:50:26.265Z,43.60
2019-05-29T03:52:54.291Z,42.37
2019-05-29T03:55:22.792Z,41.70
2019-05-29T03:57:51.197Z,42.77
2019-05-29T04:00:19.778Z,43.43
2019-05-29T04:02:48.203Z,42.10
2019-05-29T04:05:17.008Z,41.83
2019-05-29T04:07:45.417Z,44.30
2019-05-29T04:10:14.095Z,41.40
2019-05-29T04:12:42.503Z,41.40
2019-05-29T04:15:11.007Z,43.70
2019-05-29T04:17:39.793Z,41.20
2019-05-29T04:20:08.302Z,40.33
2019-05-29T04:22:44.756Z,41.93
2019-05-29T04:25:14.955Z,40.40
2019-05-29T04:27:43.908Z,41.40
2019-05-29T04:30:12.956Z,41.87
2019-05-29T04:32:41.430Z,44.40
2019-05-29T04:35:09.926Z,41.03
2019-05-29T04:37:39.922Z,41.77
2019-05-29T04:40:08.856Z,43.23
2019-05-29T04:42:38.147Z,43.43
2019-05-29T04:45:08.153Z,42.10
2019-05-29T04:47:37.366Z,40.47
2019-05-29T04:50:07.096Z,45.23
2019-05-29T04:52:37.158Z,40.20
2019-05-29T04:55:05.927Z,40.47
2019-05-29T04:57:34.942Z,40.77
2019-05-29T05:00:04.273Z,42.23
2019-05-29T05:02:33.072Z,40.20
2019-05-29T05:05:01.596Z,42.80
2019-05-29T05:07:31.089Z,41.37
2019-05-29T05:09:59.644Z,42.70
2019-05-29T05:12:29.504Z,41.30
2019-05-29T05:14:58.593Z,40.50
2019-05-29T05:17:27.013Z,43.57
2019-05-29T05:19:55.423Z,41.70
2019-05-29T05:22:23.857Z,40.50
2019-05-29T05:24:52.316Z,40.57
2019-05-29T05:27:20.707Z,42.33
2019-05-29T05:29:49.112Z,39.87
2019-05-29T05:32:17.540Z,40.13
2019-05-29T05:34:45.949Z,39.80
2019-05-29T05:37:14.382Z,40.30
2019-05-29T05:39:42.787Z,40.27
2019-05-29T05:42:11.218Z,40.27
2019-05-29T05:44:39.626Z,39.13
2019-05-29T05:47:08.064Z,40.40
2019-05-29T05:49:37.344Z,37.97
2019-05-29T05:52:05.871Z,38.40
2019-05-29T05:54:35.345Z,38.00
2019-05-29T05:57:03.993Z,40.30
2019-05-29T05:59:33.531Z,38.90
2019-05-29T06:02:02.246Z,38.10
2019-05-29T06:04:31.733Z,38.00
2019-05-29T06:07:00.332Z,40.40
2019-05-29T06:09:28.735Z,38.40
2019-05-29T06:11:57.143Z,39.00
2019-05-29T06:14:25.578Z,41.00
2019-05-29T06:16:54.049Z,43.00
2019-05-29T06:19:22.462Z,39.57
2019-05-29T06:21:50.866Z,42.50
2019-05-29T06:24:19.301Z,41.90
2019-05-29T06:26:47.710Z,38.73
2019-05-29T06:29:16.140Z,43.77
2019-05-29T06:31:44.553Z,41.00
2019-05-29T06:34:12.997Z,38.50
2019-05-29T06:36:41.711Z,38.77
2019-05-29T06:39:10.289Z,43.40
2019-05-29T06:41:40.113Z,39.60
2019-05-29T06:44:08.944Z,40.23
2019-05-29T06:46:38.359Z,38.37
2019-05-29T06:49:06.833Z,38.00
2019-05-29T06:51:35.247Z,40.57
2019-05-29T06:54:03.680Z,38.87
2019-05-29T06:56:32.083Z,38.97
2019-05-29T06:59:00.534Z,38.17
2019-05-29T07:01:28.998Z,40.90
2019-05-29T07:04:11.487Z,45.37
2019-05-29T07:06:27.553Z,39.93
2019-05-29T07:08:56.253Z,37.50
2019-05-29T07:11:24.658Z,37.90
2019-05-29T07:13:53.092Z,38.47
2019-05-29T07:16:21.513Z,40.50
2019-05-29T07:19:32.760Z,38.53
2019-05-29T07:21:20.155Z,39.30
2019-05-29T07:23:48.957Z,38.80
2019-05-29T07:26:17.582Z,38.10
2019-05-29T07:29:03.447Z,40.47
2019-05-29T07:31:16.156Z,40.57
2019-05-29T07:33:45.275Z,38.23
2019-05-29T07:36:13.846Z,38.33
2019-05-29T07:38:48.867Z,39.73
2019-05-29T07:41:12.451Z,38.40
2019-05-29T07:43:41.806Z,39.40
2019-05-29T07:46:10.350Z,38.27
2019-05-29T07:48:40.258Z,37.93
2019-05-29T07:51:08.881Z,38.90
2019-05-29T07:53:38.191Z,37.50
2019-05-29T07:56:21.636Z,39.30
2019-05-29T07:58:36.822Z,42.87
2019-05-29T08:01:13.348Z,37.70
2019-05-29T08:03:35.384Z,38.33
2019-05-29T08:06:03.946Z,39.20
2019-05-29T08:08:32.404Z,37.10
2019-05-29T08:11:00.837Z,38.23
2019-05-29T08:13:29.234Z,38.17
2019-05-29T08:16:03.162Z,40.87
2019-05-29T08:18:27.796Z,37.97
2019-05-29T08:20:56.236Z,43.00
2019-05-29T08:23:24.630Z,38.60
2019-05-29T08:25:53.059Z,44.37
2019-05-29T08:28:21.462Z,38.73
2019-05-29T08:30:55.778Z,37.90
2019-05-29T08:33:20.300Z,38.60
2019-05-29T08:35:57.653Z,38.30
2019-05-29T08:38:19.597Z,37.93
2019-05-29T08:40:48.002Z,38.30
2019-05-29T08:43:16.438Z,38.97
2019-05-29T08:45:45.530Z,39.90
2019-05-29T08:48:13.963Z,39.37
2019-05-29T08:50:43.582Z,37.00
2019-05-29T08:53:12.175Z,37.87
2019-05-29T08:55:40.581Z,42.13
2019-05-29T08:58:09.009Z,37.03
2019-05-29T09:00:37.730Z,37.40
2019-05-29T09:03:06.230Z,38.67
2019-05-29T09:05:34.640Z,38.73
2019-05-29T09:08:03.856Z,37.80
2019-05-29T09:10:32.256Z,38.10
2019-05-29T09:13:04.746Z,38.10
2019-05-29T09:15:30.877Z,37.40
2019-05-29T09:17:59.302Z,38.47
2019-05-29T09:20:43.526Z,40.17
2019-05-29T09:22:57.866Z,36.60
2019-05-29T09:25:26.271Z,38.37
2019-05-29T09:27:54.706Z,41.20
2019-05-29T09:30:23.631Z,37.60
2019-05-29T09:32:53.155Z,41.27
2019-05-29T09:35:23.303Z,36.87
2019-05-29T09:37:52.045Z,37.17
2019-05-29T09:40:21.169Z,38.30
2019-05-29T09:42:49.726Z,37.47
2019-05-29T09:45:19.570Z,37.90
2019-05-29T09:47:48.107Z,42.63
2019-05-29T09:50:18.548Z,37.17
2019-05-29T09:52:47.110Z,37.83
2019-05-29T09:55:15.582Z,37.00
2019-05-29T09:57:44.024Z,38.47
2019-05-29T10:00:13.799Z,36.80
2019-05-29T10:02:42.220Z,37.77
2019-05-29T10:05:10.930Z,37.93
2019-05-29T10:07:39.471Z,40.57
2019-05-29T10:10:12.855Z,39.00
2019-05-29T10:12:41.309Z,38.77
2019-05-29T10:15:10.980Z,40.40
2019-05-29T10:17:39.456Z,38.83
2019-05-29T10:20:09.125Z,38.40
2019-05-29T10:22:37.672Z,36.70
2019-05-29T10:25:06.840Z,37.27
2019-05-29T10:27:35.248Z,37.80
2019-05-29T10:30:05.590Z,39.63
2019-05-29T10:32:33.987Z,41.40
2019-05-29T10:35:02.434Z,38.80
2019-05-29T10:37:30.828Z,37.00
2019-05-29T10:39:59.251Z,36.80
2019-05-29T10:42:27.652Z,38.40
2019-05-29T10:44:56.086Z,38.90
2019-05-29T10:47:24.501Z,36.97
2019-05-29T10:49:53.826Z,37.40
2019-05-29T10:52:22.407Z,40.47
2019-05-29T10:54:50.837Z,38.80
2019-05-29T10:57:19.318Z,47.50
2019-05-29T10:59:48.745Z,36.57
2019-05-29T11:02:17.138Z,37.30
2019-05-29T11:04:49.486Z,40.57
2019-05-29T11:07:15.696Z,37.90
2019-05-29T11:09:45.090Z,38.67
2019-05-29T11:12:14.396Z,41.53
2019-05-29T11:14:42.830Z,37.50
2019-05-29T11:17:11.389Z,37.50
2019-05-29T11:19:39.795Z,36.60
2019-05-29T11:22:25.146Z,38.10
2019-05-29T11:24:38.462Z,38.73
2019-05-29T11:27:06.901Z,38.70
2019-05-29T11:29:35.298Z,39.80
2019-05-29T11:32:03.801Z,38.57
2019-05-29T11:34:32.203Z,37.07
2019-05-29T11:37:00.631Z,37.10
2019-05-29T11:39:29.037Z,37.23
2019-05-29T11:41:57.467Z,38.00
2019-05-29T11:44:25.883Z,40.27
2019-05-29T11:46:54.414Z,40.53
2019-05-29T11:49:22.880Z,37.53
2019-05-29T11:51:51.653Z,38.33
2019-05-29T11:54:20.108Z,40.17
2019-05-29T11:56:48.540Z,37.10
2019-05-29T11:59:16.949Z,36.80
2019-05-29T12:01:50.367Z,38.60
2019-05-29T12:04:25.744Z,37.47
2019-05-29T12:06:45.659Z,38.53
2019-05-29T12:09:29.030Z,38.50
2019-05-29T12:11:44.248Z,39.00
2019-05-29T12:14:12.635Z,36.67
2019-05-29T12:16:41.066Z,37.10
2019-05-29T12:19:09.473Z,36.87
2019-05-29T12:21:42.350Z,37.97
2019-05-29T12:24:08.112Z,37.60
2019-05-29T12:26:36.546Z,37.83
2019-05-29T12:29:11.504Z,38.97
2019-05-29T12:31:35.260Z,39.47
2019-05-29T12:34:16.350Z,39.93
2019-05-29T12:36:33.916Z,41.30
2019-05-29T12:39:04.114Z,39.00
2019-05-29T12:41:32.639Z,38.30
2019-05-29T12:44:01.647Z,39.13
2019-05-29T12:46:30.249Z,39.47
2019-05-29T12:48:59.508Z,42.13
2019-05-29T12:51:28.001Z,39.13
2019-05-29T12:53:56.446Z,39.50
2019-05-29T12:56:24.858Z,38.00
2019-05-29T12:58:54.163Z,37.43
2019-05-29T13:01:22.664Z,41.67
2019-05-29T13:03:51.114Z,38.00
2019-05-29T13:06:19.533Z,39.07
2019-05-29T13:08:48.044Z,38.90
2019-05-29T13:11:16.456Z,38.20
2019-05-29T13:13:44.892Z,41.57
2019-05-29T13:16:13.304Z,37.40
2019-05-29T13:18:41.746Z,39.90
2019-05-29T13:21:10.221Z,40.30
2019-05-29T13:23:45.077Z,37.50
2019-05-29T13:26:08.857Z,39.40
2019-05-29T13:28:37.370Z,38.60
2019-05-29T13:31:06.773Z,38.80
2019-05-29T13:33:35.355Z,40.30
2019-05-29T13:36:04.514Z,38.10
2019-05-29T13:38:33.541Z,38.77
2019-05-29T13:41:02.525Z,37.50
2019-05-29T13:43:31.190Z,39.27
2019-05-29T13:46:00.489Z,38.80
2019-05-29T13:48:29.094Z,37.17
2019-05-29T13:50:57.495Z,41.43
2019-05-29T13:53:25.923Z,36.97
2019-05-29T13:55:54.326Z,37.00
2019-05-29T13:58:22.755Z,37.63
2019-05-29T14:00:53.008Z,40.43
2019-05-29T14:03:21.436Z,38.37
2019-05-29T14:05:49.841Z,39.93
2019-05-29T14:08:18.275Z,37.43
2019-05-29T14:10:46.694Z,38.67
2019-05-29T14:13:15.126Z,39.10
2019-05-29T14:15:43.531Z,42.23
2019-05-29T14:18:13.040Z,39.80
2019-05-29T14:20:41.582Z,37.93
2019-05-29T14:23:09.964Z,38.20
2019-05-29T14:25:38.391Z,39.90
2019-05-29T14:28:06.950Z,42.93
2019-05-29T14:30:35.389Z,38.67
2019-05-29T14:33:04.429Z,38.77
2019-05-29T14:35:33.000Z,38.10
2019-05-29T14:38:01.461Z,38.60
2019-05-29T14:40:29.898Z,37.47
2019-05-29T14:42:58.376Z,39.70
2019-05-29T14:45:26.803Z,40.23
2019-05-29T14:47:55.209Z,38.37
2019-05-29T14:50:23.646Z,41.83
2019-05-29T14:52:52.073Z,38.60
2019-05-29T14:55:20.545Z,38.73
2019-05-29T14:57:48.955Z,39.10
2019-05-29T15:00:24.746Z,40.50
2019-05-29T15:02:48.056Z,43.30
2019-05-29T15:05:17.525Z,38.27
2019-05-29T15:07:45.926Z,40.93
2019-05-29T15:10:24.981Z,38.13
2019-05-29T15:12:46.053Z,38.93
2019-05-29T15:15:16.471Z,38.83
2019-05-29T15:17:44.752Z,38.30
2019-05-29T15:20:14.828Z,43.90
2019-05-29T15:22:43.664Z,38.60
2019-05-29T15:25:23.015Z,37.97
2019-05-29T15:27:42.465Z,38.10
2019-05-29T15:30:14.744Z,37.70
2019-05-29T15:32:41.414Z,38.67
2019-05-29T15:35:14.399Z,39.90
2019-05-29T15:37:40.407Z,37.63
2019-05-29T15:40:10.939Z,40.33
2019-05-29T15:42:39.488Z,38.20
2019-05-29T15:45:09.902Z,41.93
2019-05-29T15:47:38.444Z,39.27
2019-05-29T15:50:09.146Z,37.37
2019-05-29T15:52:37.825Z,39.70
2019-05-29T15:55:22.012Z,43.03
2019-05-29T15:57:37.762Z,39.70
2019-05-29T16:00:09.124Z,38.83
2019-05-29T16:02:37.610Z,38.80
2019-05-29T16:05:06.642Z,38.20
2019-05-29T16:07:35.059Z,36.90
2019-05-29T16:10:05.174Z,38.07
2019-05-29T16:12:33.608Z,39.27
2019-05-29T16:15:02.016Z,37.57
2019-05-29T16:17:30.479Z,39.17
2019-05-29T16:19:58.929Z,38.77
2019-05-29T16:22:27.364Z,37.80
2019-05-29T16:24:55.760Z,37.47
2019-05-29T16:27:30.070Z,38.00
2019-05-29T16:29:54.394Z,39.20
2019-05-29T16:32:22.894Z,38.17
2019-05-29T16:34:51.296Z,37.33
2019-05-29T16:37:19.727Z,39.63
2019-05-29T16:39:48.137Z,36.97
2019-05-29T16:42:25.865Z,38.60
2019-05-29T16:44:54.268Z,39.60
2019-05-29T16:47:22.781Z,39.10
2019-05-29T16:49:51.187Z,38.60
2019-05-29T16:52:20.769Z,38.57
2019-05-29T16:54:49.523Z,37.73
2019-05-29T16:57:19.230Z,37.40
2019-05-29T16:59:47.786Z,38.20
2019-05-29T17:02:17.631Z,37.13
2019-05-29T17:04:46.221Z,38.87
2019-05-29T17:07:16.005Z,39.23
2019-05-29T17:09:44.611Z,37.30
2019-05-29T17:12:14.206Z,38.70
2019-05-29T17:14:42.821Z,38.07
2019-05-29T17:17:11.276Z,38.00
2019-05-29T17:19:39.752Z,38.57
2019-05-29T17:22:08.249Z,40.10
2019-05-29T17:24:45.140Z,41.00
2019-05-29T17:27:14.571Z,38.03
2019-05-29T17:29:43.078Z,39.87
2019-05-29T17:32:11.510Z,38.93
2019-05-29T17:34:39.926Z,36.90
2019-05-29T17:37:08.433Z,38.50
2019-05-29T17:39:36.835Z,37.90
2019-05-29T17:42:05.344Z,36.30
2019-05-29T17:44:33.752Z,36.57
2019-05-29T17:47:02.200Z,35.40
2019-05-29T17:49:34.423Z,36.13
2019-05-29T17:52:00.751Z,35.27
2019-05-29T17:54:29.153Z,35.27
2019-05-29T17:56:57.801Z,36.17
2019-05-29T17:59:26.420Z,35.20
2019-05-29T18:01:54.878Z,36.03
2019-05-29T18:04:24.835Z,35.57
2019-05-29T18:06:58.946Z,36.90
2019-05-29T18:09:29.218Z,36.93
2019-05-29T18:11:57.515Z,35.90
2019-05-29T18:14:31.613Z,36.10
2019-05-29T18:17:00.015Z,34.20
2019-05-29T18:19:28.480Z,33.70
2019-05-29T18:21:56.918Z,35.30
2019-05-29T18:24:26.081Z,34.03
2019-05-29T18:26:54.518Z,34.83
2019-05-29T18:29:24.236Z,34.90
2019-05-29T18:31:53.034Z,35.03
2019-05-29T18:34:22.625Z,36.30
2019-05-29T18:36:51.359Z,38.37
2019-05-29T18:39:20.180Z,36.93
2019-05-29T18:41:48.669Z,36.00
2019-05-29T18:44:17.107Z,37.97
2019-05-29T18:46:45.514Z,37.90
2019-05-29T18:49:14.888Z,40.60
2019-05-29T18:51:43.432Z,38.10
2019-05-29T18:54:11.865Z,37.40
2019-05-29T18:56:40.273Z,38.03
2019-05-29T18:59:08.707Z,38.60
2019-05-29T19:01:37.122Z,37.40
2019-05-29T19:04:05.630Z,38.63
2019-05-29T19:06:34.033Z,43.50
2019-05-29T19:09:02.466Z,38.27
2019-05-29T19:11:32.007Z,39.30
2019-05-29T19:14:00.493Z,38.23
2019-05-29T19:16:30.007Z,39.40
2019-05-29T19:18:58.478Z,39.30
2019-05-29T19:21:26.930Z,37.80
2019-05-29T19:23:55.393Z,39.83
2019-05-29T19:26:24.759Z,39.30
2019-05-29T19:29:06.036Z,38.87
2019-05-29T19:31:46.352Z,41.40
2019-05-29T19:34:29.485Z,41.40
2019-05-29T19:37:09.775Z,46.13
2019-05-29T19:39:41.359Z,40.70
2019-05-29T19:42:12.391Z,45.30
2019-05-29T19:44:41.338Z,40.57
2019-05-29T19:47:14.558Z,41.40
2019-05-29T19:49:43.186Z,44.00
2019-05-29T19:52:11.592Z,42.20
2019-05-29T19:54:40.038Z,40.60
2019-05-29T19:57:08.488Z,44.07
2019-05-29T19:59:37.449Z,41.57
2019-05-29T20:02:06.027Z,41.43
2019-05-29T20:04:36.959Z,41.10
2019-05-29T20:07:05.681Z,43.80
2019-05-29T20:09:35.453Z,43.00
2019-05-29T20:12:04.673Z,41.37
2019-05-29T20:14:33.818Z,44.83
2019-05-29T20:17:08.763Z,43.10
2019-05-29T20:19:40.849Z,41.37
2019-05-29T20:22:08.147Z,43.53
2019-05-29T20:24:44.120Z,41.27
2019-05-29T20:27:12.654Z,42.57
2019-05-29T20:29:41.141Z,42.50
2019-05-29T20:32:14.794Z,43.53
2019-05-29T20:34:50.659Z,42.87
2019-05-29T20:37:21.818Z,40.93
2019-05-29T20:39:52.518Z,41.40
2019-05-29T20:42:21.222Z,42.13
2019-05-29T20:44:49.919Z,41.20
2019-05-29T20:47:18.956Z,41.70
2019-05-29T20:49:56.933Z,42.60
2019-05-29T20:52:27.094Z,42.80
2019-05-29T20:55:01.481Z,44.07
2019-05-29T20:57:42.207Z,41.87
2019-05-29T21:00:18.681Z,44.03
2019-05-29T21:03:06.673Z,43.03
2019-05-29T21:05:47.948Z,41.53
2019-05-29T21:08:30.530Z,40.90
2019-05-29T21:11:04.566Z,42.43
2019-05-29T21:13:44.413Z,43.83
2019-05-29T21:16:21.336Z,41.97
2019-05-29T21:18:57.455Z,42.33
2019-05-29T21:21:36.834Z,41.30
2019-05-29T21:24:13.707Z,42.50
2019-05-29T21:26:58.912Z,42.43
2019-05-29T21:29:35.099Z,41.40
2019-05-29T21:32:06.585Z,42.63
2019-05-29T21:34:41.933Z,42.20
2019-05-29T21:37:17.889Z,42.10
2019-05-29T21:39:55.049Z,41.87
2019-05-29T21:42:29.483Z,43.00
2019-05-29T21:45:01.028Z,41.30
2019-05-29T21:47:39.007Z,41.40
2019-05-29T21:50:18.719Z,43.50
2019-05-29T21:52:55.788Z,41.93
2019-05-29T21:55:29.658Z,41.03
2019-05-29T21:58:06.332Z,41.90
2019-05-29T22:00:46.308Z,42.20
2019-05-29T22:03:21.006Z,42.13
2019-05-29T22:06:01.070Z,41.60
2019-05-29T22:08:36.268Z,41.60
2019-05-29T22:11:11.835Z,41.63
2019-05-29T22:13:42.766Z,42.67
2019-05-29T22:16:17.670Z,42.13
2019-05-29T22:19:04.137Z,43.23
2019-05-29T22:21:37.286Z,43.50
2019-05-29T22:24:09.749Z,41.53
2019-05-29T22:26:39.073Z,41.60
2019-05-29T22:29:17.852Z,43.60
2019-05-29T22:31:38.724Z,42.10
2019-05-29T22:34:07.214Z,41.90
2019-05-29T22:36:35.614Z,44.57
2019-05-29T22:39:05.279Z,42.10
2019-05-29T22:41:33.688Z,43.37
2019-05-29T22:44:02.722Z,44.27
2019-05-29T22:46:32.955Z,44.67
2019-05-29T22:49:07.516Z,42.27
2019-05-29T22:51:45.219Z,40.83
2019-05-29T22:54:13.633Z,42.10
2019-05-29T22:56:42.040Z,43.63
2019-05-29T22:59:10.472Z,44.77
2019-05-29T23:01:38.888Z,44.40
2019-05-29T23:04:07.322Z,41.77
2019-05-29T23:06:35.725Z,42.80
2019-05-29T23:09:05.887Z,40.80
2019-05-29T23:11:34.298Z,42.17
2019-05-29T23:14:02.700Z,44.47
2019-05-29T23:16:31.139Z,42.07
2019-05-29T23:19:00.624Z,42.27
2019-05-29T23:21:29.220Z,43.50
2019-05-29T23:23:57.630Z,43.00
2019-05-29T23:26:26.058Z,41.70
2019-05-29T23:28:54.755Z,42.00
2019-05-29T23:31:23.273Z,42.80
2019-05-29T23:33:52.757Z,41.33
2019-05-29T23:36:21.298Z,44.17
2019-05-29T23:38:49.713Z,41.97
2019-05-29T23:41:18.143Z,41.83
2019-05-29T23:43:46.549Z,41.00
2019-05-29T23:46:15.050Z,41.57
2019-05-29T23:48:43.461Z,42.67
2019-05-29T23:51:11.891Z,41.97
2019-05-29T23:53:40.298Z,42.47
2019-05-29T23:56:08.741Z,43.23
2019-05-29T23:58:37.144Z,40.47
